createdAt,value
2017-11-25T00:01:08.781Z,97.40
2017-11-25T00:03:36.331Z,97.30
2017-11-25T00:06:04.679Z,97.60
2017-11-25T00:08:32.224Z,97.20
2017-11-25T00:10:59.806Z,97.30
2017-11-25T00:13:27.340Z,97.60
2017-11-25T00:15:56.628Z,98.20
2017-11-25T00:18:27.235Z,97.80
2017-11-25T00:20:54.806Z,98.00
2017-11-25T00:23:22.336Z,98.10
2017-11-25T00:25:54.913Z,97.80
2017-11-25T00:28:23.230Z,97.80
2017-11-25T00:30:51.572Z,97.80
2017-11-25T00:33:19.108Z,97.80
2017-11-25T00:35:47.492Z,97.90
2017-11-25T00:38:15.789Z,97.70
2017-11-25T00:40:46.098Z,97.80
2017-11-25T00:43:13.630Z,97.80
2017-11-25T00:45:42.152Z,97.70
2017-11-25T00:48:09.683Z,97.80
2017-11-25T00:50:37.264Z,97.90
2017-11-25T00:53:04.800Z,97.60
2017-11-25T00:55:33.137Z,97.70
2017-11-25T00:58:00.669Z,97.70
2017-11-25T01:00:29.933Z,97.80
2017-11-25T01:02:57.467Z,97.80
2017-11-25T01:05:25.047Z,97.80
2017-11-25T01:07:52.584Z,97.70
2017-11-25T01:10:20.168Z,97.80
2017-11-25T01:12:48.479Z,97.60
2017-11-25T01:15:16.052Z,97.60
2017-11-25T01:17:44.355Z,97.50
2017-11-25T01:20:12.563Z,97.50
2017-11-25T01:22:40.115Z,97.40
2017-11-25T01:25:08.971Z,97.70
2017-11-25T01:27:37.364Z,97.70
2017-11-25T01:30:12.729Z,97.90
2017-11-25T01:32:41.047Z,97.80
2017-11-25T01:35:08.735Z,97.80
2017-11-25T01:37:39.425Z,97.90
2017-11-25T01:40:07.816Z,97.80
2017-11-25T01:42:36.850Z,97.80
2017-11-25T01:45:06.653Z,97.80
2017-11-25T01:47:35.632Z,97.70
2017-11-25T01:50:03.216Z,97.50
2017-11-25T01:52:31.744Z,97.60
2017-11-25T01:55:01.100Z,97.30
2017-11-25T01:57:28.651Z,97.50
2017-11-25T01:59:57.780Z,97.60
2017-11-25T02:02:26.320Z,97.60
2017-11-25T02:04:55.603Z,97.80
2017-11-25T02:07:23.168Z,97.80
2017-11-25T02:09:50.744Z,98.00
2017-11-25T02:12:18.283Z,98.00
2017-11-25T02:14:46.616Z,98.00
2017-11-25T02:17:14.144Z,98.00
2017-11-25T02:19:42.479Z,98.20
2017-11-25T02:22:10.004Z,98.10
2017-11-25T02:24:37.569Z,98.10
2017-11-25T02:27:05.152Z,98.20
2017-11-25T02:29:32.716Z,98.10
2017-11-25T02:32:00.249Z,98.20
2017-11-25T02:34:27.822Z,98.00
2017-11-25T02:36:55.382Z,98.20
2017-11-25T02:39:23.485Z,98.20
2017-11-25T02:41:51.025Z,98.30
2017-11-25T02:44:18.715Z,98.40
2017-11-25T02:46:47.009Z,98.50
2017-11-25T02:49:15.532Z,98.50
2017-11-25T02:51:44.042Z,98.50
2017-11-25T02:54:11.638Z,98.60
2017-11-25T02:56:39.940Z,98.50
2017-11-25T02:59:08.273Z,98.50
2017-11-25T03:01:35.808Z,98.50
2017-11-25T03:04:03.499Z,98.60
2017-11-25T03:06:31.036Z,98.50
2017-11-25T03:08:59.409Z,99.10
2017-11-25T03:11:26.985Z,98.60
2017-11-25T03:13:54.561Z,98.70
2017-11-25T03:16:22.101Z,98.90
2017-11-25T03:18:49.713Z,99.00
2017-11-25T03:21:17.253Z,99.10
2017-11-25T03:23:44.855Z,99.00
2017-11-25T03:26:12.393Z,99.30
2017-11-25T03:28:40.785Z,99.20
2017-11-25T03:31:08.323Z,99.20
2017-11-25T03:33:36.190Z,99.30
2017-11-25T03:36:04.650Z,99.50
2017-11-25T03:38:32.248Z,99.40
2017-11-25T03:40:59.828Z,99.40
2017-11-25T03:43:28.133Z,99.70
2017-11-25T03:45:56.471Z,99.40
2017-11-25T03:48:24.016Z,99.40
2017-11-25T03:50:52.075Z,99.90
2017-11-25T03:53:20.395Z,99.80
2017-11-25T03:55:48.033Z,99.80
2017-11-25T03:58:16.348Z,99.90
2017-11-25T04:00:43.926Z,99.90
2017-11-25T04:03:11.469Z,99.70
2017-11-25T04:05:39.815Z,99.90
2017-11-25T04:08:07.360Z,99.90
2017-11-25T04:10:34.968Z,99.50
2017-11-25T04:13:02.501Z,97.70
2017-11-25T04:15:30.075Z,97.20
2017-11-25T04:17:57.609Z,97.10
2017-11-25T04:20:25.185Z,97.20
2017-11-25T04:22:52.725Z,97.50
2017-11-25T04:25:20.306Z,97.70
2017-11-25T04:27:47.837Z,97.50
2017-11-25T04:30:15.421Z,97.60
2017-11-25T04:32:43.015Z,96.90
2017-11-25T04:35:10.610Z,98.30
2017-11-25T04:37:38.138Z,98.70
2017-11-25T04:40:05.714Z,98.10
2017-11-25T04:42:33.245Z,98.60
2017-11-25T04:45:00.813Z,98.70
2017-11-25T04:47:28.345Z,99.00
2017-11-25T04:49:55.913Z,99.20
2017-11-25T04:52:24.416Z,98.90
2017-11-25T04:54:51.999Z,98.80
2017-11-25T04:57:19.574Z,99.10
2017-11-25T04:59:47.322Z,99.00
2017-11-25T05:02:14.858Z,99.00
2017-11-25T05:04:42.426Z,98.90
2017-11-25T05:07:09.954Z,98.30
2017-11-25T05:09:37.514Z,98.60
2017-11-25T05:12:05.037Z,98.40
2017-11-25T05:14:32.601Z,98.60
2017-11-25T05:17:00.132Z,98.80
2017-11-25T05:19:27.689Z,98.80
2017-11-25T05:21:55.981Z,98.90
2017-11-25T05:24:23.548Z,98.90
2017-11-25T05:26:51.859Z,98.30
2017-11-25T05:29:19.432Z,98.20
2017-11-25T05:31:46.980Z,98.40
2017-11-25T05:34:14.565Z,98.60
2017-11-25T05:36:42.125Z,98.90
2017-11-25T05:39:10.461Z,98.90
2017-11-25T05:41:38.936Z,98.90
2017-11-25T05:44:06.532Z,98.30
2017-11-25T05:46:34.068Z,98.50
2017-11-25T05:49:01.633Z,98.40
2017-11-25T05:51:31.774Z,98.40
2017-11-25T05:54:00.419Z,98.40
2017-11-25T05:56:27.944Z,98.60
2017-11-25T05:58:56.238Z,98.80
2017-11-25T06:01:23.812Z,98.80
2017-11-25T06:03:51.358Z,98.90
2017-11-25T06:06:18.937Z,98.60
2017-11-25T06:08:47.228Z,99.30
2017-11-25T06:11:15.557Z,98.80
2017-11-25T06:13:43.124Z,98.80
2017-11-25T06:16:10.692Z,98.40
2017-11-25T06:18:38.228Z,98.70
2017-11-25T06:21:05.798Z,98.40
2017-11-25T06:23:33.333Z,98.70
2017-11-25T06:26:00.902Z,98.20
2017-11-25T06:28:28.460Z,98.20
2017-11-25T06:30:56.021Z,97.90
2017-11-25T06:33:23.602Z,98.10
2017-11-25T06:35:51.733Z,98.40
2017-11-25T06:38:19.260Z,98.20
2017-11-25T06:40:46.820Z,98.00
2017-11-25T06:43:15.230Z,97.80
2017-11-25T06:45:42.803Z,97.80
2017-11-25T06:48:10.337Z,98.20
2017-11-25T06:50:37.953Z,98.30
2017-11-25T06:53:05.563Z,97.90
2017-11-25T06:55:33.125Z,97.80
2017-11-25T06:58:01.434Z,98.00
2017-11-25T07:00:29.005Z,98.00
2017-11-25T07:02:56.529Z,98.10
2017-11-25T07:05:24.804Z,98.20
2017-11-25T07:07:53.105Z,98.30
2017-11-25T07:10:20.688Z,98.30
2017-11-25T07:12:48.365Z,98.20
2017-11-25T07:15:16.689Z,98.00
2017-11-25T07:17:44.225Z,98.00
2017-11-25T07:20:11.794Z,97.80
2017-11-25T07:22:39.325Z,97.50
2017-11-25T07:25:06.897Z,97.60
2017-11-25T07:27:35.226Z,97.70
2017-11-25T07:30:03.569Z,97.80
2017-11-25T07:32:31.905Z,97.80
2017-11-25T07:35:00.231Z,97.70
2017-11-25T07:37:27.762Z,97.70
2017-11-25T07:39:56.093Z,97.70
2017-11-25T07:42:24.429Z,97.70
2017-11-25T07:44:53.589Z,97.60
2017-11-25T07:47:22.001Z,97.40
2017-11-25T07:49:50.341Z,97.70
2017-11-25T07:52:19.653Z,97.80
2017-11-25T07:54:47.268Z,97.70
2017-11-25T07:57:14.817Z,97.50
2017-11-25T07:59:42.997Z,97.20
2017-11-25T08:02:10.529Z,96.80
2017-11-25T08:04:38.089Z,95.90
2017-11-25T08:07:05.625Z,95.30
2017-11-25T08:09:33.191Z,95.30
2017-11-25T08:12:00.721Z,95.60
2017-11-25T08:14:28.478Z,95.20
2017-11-25T08:16:56.508Z,95.50
2017-11-25T08:19:24.833Z,96.30
2017-11-25T08:21:52.380Z,96.20
2017-11-25T08:24:19.996Z,96.90
2017-11-25T08:26:47.579Z,96.40
2017-11-25T08:29:15.936Z,96.70
2017-11-25T08:31:43.477Z,96.40
2017-11-25T08:34:11.899Z,96.00
2017-11-25T08:36:39.429Z,96.00
2017-11-25T08:39:06.997Z,96.40
2017-11-25T08:41:34.729Z,96.50
2017-11-25T08:44:02.305Z,96.70
2017-11-25T08:46:29.832Z,96.80
2017-11-25T08:48:57.422Z,96.80
2017-11-25T08:51:25.718Z,96.90
2017-11-25T08:53:54.076Z,96.20
2017-11-25T08:56:22.582Z,96.20
2017-11-25T08:58:50.177Z,96.50
2017-11-25T09:01:17.733Z,96.60
2017-11-25T09:03:46.068Z,96.70
2017-11-25T09:06:13.595Z,96.70
2017-11-25T09:08:42.225Z,96.30
2017-11-25T09:11:10.694Z,96.20
2017-11-25T09:13:39.029Z,95.70
2017-11-25T09:16:06.575Z,95.70
2017-11-25T09:18:34.141Z,96.30
2017-11-25T09:21:01.665Z,95.50
2017-11-25T09:23:29.229Z,95.80
2017-11-25T09:25:57.536Z,95.90
2017-11-25T09:28:25.106Z,95.80
2017-11-25T09:30:52.646Z,95.50
2017-11-25T09:33:20.288Z,95.50
2017-11-25T09:35:50.004Z,95.20
2017-11-25T09:38:18.365Z,95.40
2017-11-25T09:40:45.898Z,95.40
2017-11-25T09:43:14.338Z,95.40
2017-11-25T09:45:41.868Z,94.70
2017-11-25T09:48:09.437Z,94.80
2017-11-25T09:50:36.961Z,94.60
2017-11-25T09:53:04.549Z,94.50
2017-11-25T09:55:32.107Z,94.10
2017-11-25T09:57:59.672Z,93.90
2017-11-25T10:00:27.207Z,94.30
2017-11-25T10:02:54.797Z,94.10
2017-11-25T10:05:22.337Z,94.00
2017-11-25T10:07:51.567Z,94.30
2017-11-25T10:10:20.304Z,94.40
2017-11-25T10:12:47.927Z,94.30
2017-11-25T10:15:15.470Z,94.60
2017-11-25T10:17:44.905Z,94.40
2017-11-25T10:20:13.197Z,94.40
2017-11-25T10:22:41.579Z,94.70
2017-11-25T10:25:11.758Z,94.30
2017-11-25T10:27:41.441Z,94.30
2017-11-25T10:30:10.685Z,94.40
2017-11-25T10:32:38.280Z,94.40
2017-11-25T10:35:06.701Z,94.20
2017-11-25T10:37:34.317Z,94.70
2017-11-25T10:40:01.841Z,94.50
2017-11-25T10:42:29.405Z,94.20
2017-11-25T10:44:57.860Z,94.20
2017-11-25T10:47:25.447Z,94.70
2017-11-25T10:49:53.597Z,94.40
2017-11-25T10:52:21.930Z,94.40
2017-11-25T10:54:50.413Z,94.40
2017-11-25T10:57:18.085Z,94.30
2017-11-25T10:59:45.620Z,93.80
2017-11-25T11:02:13.949Z,93.80
2017-11-25T11:04:41.482Z,93.70
2017-11-25T11:07:09.044Z,93.50
2017-11-25T11:09:36.614Z,92.70
2017-11-25T11:12:04.149Z,92.60
2017-11-25T11:14:31.725Z,92.40
2017-11-25T11:16:59.289Z,92.20
2017-11-25T11:19:27.278Z,92.20
2017-11-25T11:21:54.869Z,91.90
2017-11-25T11:24:22.406Z,91.60
2017-11-25T11:26:49.986Z,91.50
2017-11-25T11:29:17.570Z,92.40
2017-11-25T11:31:45.108Z,92.30
2017-11-25T11:34:13.497Z,91.30
2017-11-25T11:36:41.107Z,91.20
2017-11-25T11:39:08.636Z,91.90
2017-11-25T11:41:36.978Z,91.40
2017-11-25T11:44:05.288Z,91.30
2017-11-25T11:46:32.880Z,91.30
2017-11-25T11:49:01.120Z,91.10
2017-11-25T11:51:30.485Z,90.90
2017-11-25T11:53:58.732Z,90.90
2017-11-25T11:56:27.233Z,90.50
2017-11-25T11:58:54.765Z,91.10
2017-11-25T12:01:23.125Z,90.70
2017-11-25T12:03:50.673Z,90.70
2017-11-25T12:06:18.244Z,89.70
2017-11-25T12:08:46.541Z,90.60
2017-11-25T12:11:14.086Z,90.30
2017-11-25T12:13:42.580Z,89.10
2017-11-25T12:16:10.117Z,90.80
2017-11-25T12:18:37.698Z,90.50
2017-11-25T12:21:06.576Z,90.00
2017-11-25T12:23:34.210Z,89.90
2017-11-25T12:26:01.929Z,90.20
2017-11-25T12:28:29.489Z,90.20
2017-11-25T12:30:57.018Z,90.00
2017-11-25T12:33:24.601Z,89.80
2017-11-25T12:35:53.130Z,89.20
2017-11-25T12:38:20.737Z,89.80
2017-11-25T12:40:49.092Z,88.10
2017-11-25T12:43:16.678Z,88.10
2017-11-25T12:45:44.213Z,87.70
2017-11-25T12:48:11.782Z,88.60
2017-11-25T12:50:39.353Z,87.60
2017-11-25T12:53:06.885Z,87.30
2017-11-25T12:55:35.836Z,85.70
2017-11-25T12:58:03.992Z,85.30
2017-11-25T13:00:33.560Z,87.60
2017-11-25T13:03:01.135Z,86.90
2017-11-25T13:05:28.693Z,85.70
2017-11-25T13:07:56.263Z,85.10
2017-11-25T13:10:23.820Z,85.00
2017-11-25T13:12:52.111Z,85.00
2017-11-25T13:15:20.443Z,85.20
2017-11-25T13:17:47.993Z,86.10
2017-11-25T13:20:15.589Z,85.10
2017-11-25T13:22:43.884Z,88.00
2017-11-25T13:25:11.417Z,87.10
2017-11-25T13:27:38.981Z,86.00
2017-11-25T13:30:07.277Z,86.10
2017-11-25T13:32:34.847Z,86.10
2017-11-25T13:35:02.413Z,85.40
2017-11-25T13:37:30.713Z,85.20
2017-11-25T13:39:58.273Z,85.10
2017-11-25T13:42:26.568Z,83.90
2017-11-25T13:44:54.905Z,85.00
2017-11-25T13:47:22.441Z,84.90
2017-11-25T13:49:50.854Z,84.90
2017-11-25T13:52:18.952Z,84.80
2017-11-25T13:54:46.527Z,84.90
2017-11-25T13:57:14.050Z,85.10
2017-11-25T13:59:42.385Z,85.70
2017-11-25T14:02:09.919Z,85.60
2017-11-25T14:04:38.244Z,86.40
2017-11-25T14:07:06.517Z,86.40
2017-11-25T14:09:34.102Z,85.30
2017-11-25T14:12:01.637Z,86.50
2017-11-25T14:14:30.272Z,85.90
2017-11-25T14:16:57.799Z,85.90
2017-11-25T14:19:25.364Z,86.60
2017-11-25T14:21:52.912Z,86.80
2017-11-25T14:24:21.250Z,85.80
2017-11-25T14:26:50.181Z,85.70
2017-11-25T14:29:17.858Z,85.70
2017-11-25T14:31:45.387Z,85.90
2017-11-25T14:34:12.912Z,85.60
2017-11-25T14:36:40.482Z,86.10
2017-11-25T14:39:08.044Z,86.00
2017-11-25T14:41:35.576Z,85.50
2017-11-25T14:44:03.146Z,86.10
2017-11-25T14:46:30.673Z,85.70
2017-11-25T14:48:58.235Z,85.30
2017-11-25T14:51:25.782Z,85.70
2017-11-25T14:53:54.083Z,85.60
2017-11-25T14:56:21.623Z,85.50
2017-11-25T14:58:49.201Z,86.10
2017-11-25T15:01:16.737Z,88.60
2017-11-25T15:03:44.879Z,90.50
2017-11-25T15:06:14.528Z,91.30
2017-11-25T15:08:42.093Z,91.30
2017-11-25T15:11:09.628Z,91.30
2017-11-25T15:13:38.596Z,91.90
2017-11-25T15:16:06.124Z,92.10
2017-11-25T15:18:36.189Z,91.50
2017-11-25T15:21:03.726Z,91.40
2017-11-25T15:23:32.066Z,88.40
2017-11-25T15:25:59.607Z,88.40
2017-11-25T15:28:27.172Z,87.50
2017-11-25T15:30:55.464Z,88.70
2017-11-25T15:33:24.622Z,86.00
2017-11-25T15:35:53.084Z,85.90
2017-11-25T15:38:20.690Z,85.30
2017-11-25T15:40:48.264Z,85.50
2017-11-25T15:43:15.792Z,85.40
2017-11-25T15:45:43.352Z,85.50
2017-11-25T15:48:11.662Z,84.30
2017-11-25T15:50:39.225Z,84.20
2017-11-25T15:53:06.805Z,84.20
2017-11-25T15:55:34.344Z,85.50
2017-11-25T15:58:01.901Z,83.40
2017-11-25T16:00:29.475Z,85.40
2017-11-25T16:02:57.044Z,84.90
2017-11-25T16:05:25.340Z,86.70
2017-11-25T16:07:52.924Z,87.50
2017-11-25T16:10:20.449Z,86.60
2017-11-25T16:12:48.019Z,85.30
2017-11-25T16:15:15.557Z,85.10
2017-11-25T16:17:43.893Z,85.70
2017-11-25T16:20:12.336Z,85.50
2017-11-25T16:22:40.673Z,86.30
2017-11-25T16:25:08.217Z,86.10
2017-11-25T16:27:36.569Z,88.40
2017-11-25T16:30:04.109Z,88.30
2017-11-25T16:32:31.673Z,89.80
2017-11-25T16:34:59.199Z,89.50
2017-11-25T16:37:26.786Z,90.60
2017-11-25T16:39:55.078Z,91.40
2017-11-25T16:42:23.412Z,91.40
2017-11-25T16:44:50.940Z,91.40
2017-11-25T16:47:19.281Z,92.10
2017-11-25T16:49:46.814Z,92.10
2017-11-25T16:52:15.153Z,92.10
2017-11-25T16:54:42.682Z,92.10
2017-11-25T16:57:11.028Z,92.60
2017-11-25T16:59:38.560Z,92.60
2017-11-25T17:02:06.143Z,92.20
2017-11-25T17:04:33.668Z,92.20
2017-11-25T17:07:02.729Z,92.60
2017-11-25T17:09:30.261Z,92.40
2017-11-25T17:11:58.605Z,92.30
2017-11-25T17:14:26.985Z,92.30
2017-11-25T17:16:54.556Z,92.10
2017-11-25T17:19:23.000Z,90.10
2017-11-25T17:21:51.471Z,88.90
2017-11-25T17:24:19.003Z,90.80
2017-11-25T17:26:46.583Z,89.20
2017-11-25T17:29:14.109Z,89.80
2017-11-25T17:31:43.181Z,88.70
2017-11-25T17:34:11.592Z,90.20
2017-11-25T17:36:39.172Z,91.40
2017-11-25T17:39:06.723Z,91.80
2017-11-25T17:41:34.297Z,92.10
2017-11-25T17:44:01.824Z,91.00
2017-11-25T17:46:31.576Z,90.50
2017-11-25T17:48:59.104Z,90.50
2017-11-25T17:51:27.617Z,91.50
2017-11-25T17:53:55.905Z,91.10
2017-11-25T17:56:24.301Z,91.20
2017-11-25T17:58:51.834Z,91.20
2017-11-25T18:01:21.050Z,91.40
2017-11-25T18:03:51.337Z,92.20
2017-11-25T18:06:21.529Z,92.10
2017-11-25T18:08:49.103Z,90.80
2017-11-25T18:11:17.440Z,90.30
2017-11-25T18:13:45.743Z,91.40
2017-11-25T18:19:08.100Z,90.40
2017-11-25T18:21:35.687Z,91.50
2017-11-25T18:24:03.208Z,92.10
2017-11-25T18:26:34.300Z,92.20
2017-11-25T18:29:04.350Z,91.70
2017-11-25T18:31:31.929Z,91.70
2017-11-25T18:34:00.222Z,92.30
2017-11-25T18:36:27.982Z,92.30
2017-11-25T18:38:55.517Z,92.40
2017-11-25T18:41:24.261Z,92.60
2017-11-25T18:43:52.767Z,92.80
2017-11-25T18:46:20.328Z,93.30
2017-11-25T18:48:47.864Z,93.60
2017-11-25T18:51:15.428Z,93.30
2017-11-25T18:53:42.962Z,92.80
2017-11-25T18:56:10.529Z,92.70
2017-11-25T18:58:38.730Z,92.10
2017-11-25T19:01:06.297Z,92.00
2017-11-25T19:03:33.829Z,92.60
2017-11-25T19:06:02.179Z,92.00
2017-11-25T19:08:29.789Z,92.00
2017-11-25T19:10:57.708Z,92.20
2017-11-25T19:13:25.234Z,92.10
2017-11-25T19:15:53.575Z,92.30
2017-11-25T19:18:21.115Z,92.70
2017-11-25T19:20:49.445Z,93.20
2017-11-25T19:23:18.145Z,93.20
2017-11-25T19:25:45.713Z,93.40
2017-11-25T19:28:14.191Z,93.20
2017-11-25T19:30:41.752Z,93.20
2017-11-25T19:33:10.131Z,93.00
2017-11-25T19:35:40.155Z,92.00
2017-11-25T19:38:07.692Z,92.00
2017-11-25T19:40:35.263Z,93.50
2017-11-25T19:43:02.831Z,94.30
2017-11-25T19:45:30.388Z,94.90
2017-11-25T19:47:59.522Z,94.90
2017-11-25T19:50:27.085Z,94.70
2017-11-25T19:52:54.617Z,95.00
2017-11-25T19:55:22.949Z,94.90
2017-11-25T19:57:50.518Z,94.90
2017-11-25T20:00:18.872Z,94.60
2017-11-25T20:02:47.165Z,92.90
2017-11-25T20:05:15.544Z,94.00
2017-11-25T20:07:43.836Z,94.60
2017-11-25T20:10:12.183Z,94.90
2017-11-25T20:12:39.753Z,94.90
2017-11-25T20:15:07.340Z,95.70
2017-11-25T20:17:34.952Z,95.60
2017-11-25T20:20:02.513Z,95.30
2017-11-25T20:22:30.808Z,95.70
2017-11-25T20:24:59.137Z,94.90
2017-11-25T20:27:26.661Z,94.60
2017-11-25T20:29:55.191Z,94.50
2017-11-25T20:32:24.841Z,93.80
2017-11-25T20:34:52.406Z,94.40
2017-11-25T20:37:19.928Z,94.50
2017-11-25T20:39:47.485Z,94.30
2017-11-25T20:42:15.008Z,93.90
2017-11-25T20:44:42.569Z,93.90
2017-11-25T20:47:12.461Z,93.60
2017-11-25T20:49:40.070Z,93.60
2017-11-25T20:52:08.368Z,93.50
2017-11-25T20:54:36.761Z,93.50
2017-11-25T20:57:04.295Z,92.90
2017-11-25T20:59:31.868Z,93.00
2017-11-25T21:01:59.394Z,93.80
2017-11-25T21:04:26.963Z,92.90
2017-11-25T21:06:54.497Z,92.80
2017-11-25T21:09:22.980Z,92.80
2017-11-25T21:11:50.522Z,93.10
2017-11-25T21:14:18.086Z,94.40
2017-11-25T21:16:45.608Z,94.50
2017-11-25T21:19:13.941Z,94.90
2017-11-25T21:21:41.469Z,94.90
2017-11-25T21:24:09.091Z,95.00
2017-11-25T21:26:36.668Z,94.90
2017-11-25T21:29:04.244Z,94.80
2017-11-25T21:31:31.775Z,94.90
2017-11-25T21:34:00.134Z,95.30
2017-11-25T21:36:27.663Z,95.30
2017-11-25T21:38:55.269Z,95.00
2017-11-25T21:41:22.793Z,95.30
2017-11-25T21:43:51.117Z,95.10
2017-11-25T21:46:19.850Z,95.00
2017-11-25T21:48:47.432Z,94.50
2017-11-25T21:51:14.958Z,93.60
2017-11-25T21:53:42.529Z,93.40
2017-11-25T21:56:11.794Z,93.60
2017-11-25T21:58:39.378Z,94.50
2017-11-25T22:01:07.801Z,95.20
2017-11-25T22:03:35.386Z,95.20
2017-11-25T22:06:02.963Z,95.60
2017-11-25T22:08:30.519Z,95.90
2017-11-25T22:10:58.041Z,96.10
2017-11-25T22:13:25.607Z,96.10
2017-11-25T22:15:53.137Z,95.80
2017-11-25T22:18:21.260Z,96.00
2017-11-25T22:20:48.827Z,96.20
2017-11-25T22:23:16.388Z,96.40
2017-11-25T22:25:43.946Z,96.10
2017-11-25T22:28:11.560Z,95.80
2017-11-25T22:30:39.093Z,95.70
2017-11-25T22:33:06.661Z,95.70
2017-11-25T22:35:34.184Z,95.80
2017-11-25T22:38:01.741Z,95.90
2017-11-25T22:40:29.264Z,95.90
2017-11-25T22:42:57.595Z,95.80
2017-11-25T22:45:25.120Z,95.80
2017-11-25T22:47:52.689Z,95.90
2017-11-25T22:50:20.989Z,95.70
2017-11-25T22:52:50.109Z,96.00
2017-11-25T22:55:18.812Z,96.00
2017-11-25T22:57:46.388Z,95.80
2017-11-25T23:00:13.912Z,95.40
2017-11-25T23:02:41.477Z,95.70
2017-11-25T23:05:09.013Z,95.40
2017-11-25T23:07:36.587Z,95.50
2017-11-25T23:10:04.113Z,95.40
2017-11-25T23:12:32.214Z,95.30
2017-11-25T23:15:00.513Z,95.80
2017-11-25T23:17:28.837Z,95.70
2017-11-25T23:19:57.164Z,95.70
2017-11-25T23:22:24.730Z,95.80
2017-11-25T23:24:53.420Z,95.70
2017-11-25T23:27:20.986Z,95.90
2017-11-25T23:29:48.525Z,95.90
2017-11-25T23:32:16.093Z,95.90
2017-11-25T23:34:43.631Z,95.90
2017-11-25T23:37:11.193Z,96.00
2017-11-25T23:39:38.719Z,95.90
2017-11-25T23:42:06.287Z,96.20
2017-11-25T23:44:33.820Z,96.00
2017-11-25T23:47:01.376Z,96.10
2017-11-25T23:49:29.669Z,95.70
2017-11-25T23:51:57.237Z,95.70
2017-11-25T23:54:24.874Z,95.90
2017-11-25T23:56:53.242Z,96.00
2017-11-25T23:59:21.536Z,95.90
